Time;durP1;ratioP1;P1;durP2;ratioP2;P2;SDS_P1;SDS_P2;PMS_P1;PMS_P2;Temp;Humidity;BMP_temperature;BMP_pressure;BME280_temperature;BME280_humidity;BME280_pressure;Samples;Min_cycle;Max_cycle;Signal;HPM_P1;HPM_P2
2022/10/17 00:01:06;;;;;;;;;3.00;3.00;;;;;25.01;39.16;100202.19;5030223;28;45546;-73
2022/10/17 00:03:33;;;;;;;;;3.00;2.67;;;;;24.99;39.76;100214.75;5032375;28;45432;-73
2022/10/17 00:05:58;;;;;;;;;4.33;4.33;;;;;24.74;40.29;100194.19;5035113;28;45373;-73
2022/10/17 00:08:24;;;;;;;;;4.00;3.67;;;;;24.80;40.14;100212.69;5033609;28;45723;-73
2022/10/17 00:11:02;;;;;;;;;5.67;5.00;;;;;24.81;40.25;100219.78;5031366;28;45550;-73
2022/10/17 00:13:28;;;;;;;;;4.00;3.00;;;;;24.88;40.24;100232.94;5033230;28;45702;-73
2022/10/17 00:15:54;;;;;;;;;4.00;3.00;;;;;24.85;40.24;100235.69;5035160;28;45562;-73
2022/10/17 00:18:20;;;;;;;;;3.67;3.33;;;;;24.69;40.23;100225.56;5034782;28;46276;-73
2022/10/17 00:20:45;;;;;;;;;3.67;3.67;;;;;24.79;40.98;100245.69;5033359;28;45379;-73
2022/10/17 00:23:11;;;;;;;;;5.00;3.33;;;;;24.81;40.65;100253.66;5034428;28;45476;-73
2022/10/17 00:25:36;;;;;;;;;4.00;4.00;;;;;24.65;41.12;100229.25;5033299;28;45933;-73
2022/10/17 00:28:03;;;;;;;;;4.00;3.67;;;;;24.71;40.93;100244.19;5048061;28;47006;-73
2022/10/17 00:30:28;;;;;;;;;5.00;3.67;;;;;24.67;40.79;100243.44;5032716;28;47019;-73
2022/10/17 00:32:54;;;;;;;;;4.00;4.00;;;;;24.68;41.06;100255.84;5033361;28;46299;-73
2022/10/17 00:35:20;;;;;;;;;4.00;4.00;;;;;24.67;40.70;100258.56;5032954;28;45862;-73
2022/10/17 00:37:45;;;;;;;;;6.00;4.00;;;;;24.50;40.90;100225.28;5032893;28;46534;-73
2022/10/17 00:40:11;;;;;;;;;3.67;3.00;;;;;24.66;41.66;100268.38;5032400;28;45201;-72
2022/10/17 00:42:36;;;;;;;;;4.00;4.00;;;;;24.56;41.73;100256.25;5032096;28;45419;-73
2022/10/17 00:45:23;;;;;;;;;5.00;4.00;;;;;24.19;41.59;100194.22;5030703;28;45653;-73
2022/10/17 00:47:58;;;;;;;;;4.00;4.00;;;;;24.59;42.24;100274.81;5032730;28;46734;-73
2022/10/17 00:50:24;;;;;;;;;5.00;4.00;;;;;24.45;43.17;100256.53;5032006;28;45368;-73
2022/10/17 00:52:51;;;;;;;;;3.00;3.00;;;;;24.28;42.91;100240.22;5033600;28;45493;-72
2022/10/17 00:55:24;;;;;;;;;2.00;2.00;;;;;24.26;43.58;100240.25;5033777;28;45564;-73
2022/10/17 00:57:50;;;;;;;;;3.33;3.00;;;;;24.26;43.68;100250.94;5049162;28;45482;-73
2022/10/17 01:00:17;;;;;;;;;3.00;3.00;;;;;24.26;43.48;100253.59;5047973;28;45463;-72
2022/10/17 01:02:44;;;;;;;;;4.00;3.33;;;;;24.14;43.86;100240.66;5034007;28;45859;-73
2022/10/17 01:05:10;;;;;;;;;4.33;3.33;;;;;24.16;43.80;100245.00;5030339;28;45525;-73
2022/10/17 01:07:38;;;;;;;;;5.00;4.00;;;;;24.20;43.60;100259.13;5033130;28;47829;-73
2022/10/17 01:10:05;;;;;;;;;3.00;3.00;;;;;24.18;43.30;100245.81;5033856;28;45367;-74
2022/10/17 01:12:55;;;;;;;;;4.00;3.67;;;;;24.19;42.91;100254.69;5033608;28;45277;-73
2022/10/17 01:15:49;;;;;;;;;4.00;4.00;;;;;24.22;43.16;100265.28;5029260;28;45512;-73
2022/10/17 01:18:33;;;;;;;;;4.33;4.00;;;;;24.24;42.70;100274.13;5031038;28;45533;-73
2022/10/17 01:21:20;;;;;;;;;4.00;3.00;;;;;24.26;42.61;100274.97;5031377;28;45493;-72
2022/10/17 01:23:48;;;;;;;;;5.00;4.00;;;;;24.26;43.31;100279.44;5032232;28;45574;-73
2022/10/17 01:27:05;;;;;;;;;4.00;3.67;;;;;24.22;42.84;100273.31;5032892;28;45605;-73
2022/10/17 01:29:49;;;;;;;;;5.00;4.00;;;;;24.22;43.33;100283.97;4979448;28;47760;-73
2022/10/17 01:32:32;;;;;;;;;4.00;4.00;;;;;24.18;44.50;100272.50;5032675;28;45395;-73
2022/10/17 01:35:11;;;;;;;;;6.00;4.00;;;;;24.06;43.84;100256.88;5030638;28;45537;-72
2022/10/17 01:37:47;;;;;;;;;5.00;5.00;;;;;24.05;44.43;100260.47;5028605;28;45619;-73
2022/10/17 01:40:23;;;;;;;;;4.00;3.00;;;;;24.00;44.20;100257.94;5032158;28;45597;-73
2022/10/17 01:43:14;;;;;;;;;5.67;4.33;;;;;23.90;44.27;100255.59;5033435;28;45344;-73
2022/10/17 01:45:51;;;;;;;;;5.00;4.00;;;;;23.96;44.11;100266.97;5033196;28;45405;-73
2022/10/17 01:48:23;;;;;;;;;4.00;3.00;;;;;23.99;43.90;100271.31;5056993;28;45569;-73
2022/10/17 01:50:58;;;;;;;;;3.33;3.00;;;;;24.01;44.01;100274.81;5025182;28;45291;-73
2022/10/17 01:53:30;;;;;;;;;4.33;4.33;;;;;24.05;44.25;100288.94;5030395;28;45603;-73
2022/10/17 01:56:00;;;;;;;;;3.00;3.00;;;;;23.92;43.72;100273.31;5026487;28;45423;-73
2022/10/17 01:58:48;;;;;;;;;5.00;3.00;;;;;23.93;44.37;100277.69;5029240;28;45451;-73
2022/10/17 02:01:15;;;;;;;;;4.00;3.00;;;;;23.92;44.26;100272.44;5034928;28;45404;-73
2022/10/17 02:03:44;;;;;;;;;6.00;4.00;;;;;23.93;43.84;100272.38;5026767;28;45303;-73
2022/10/17 02:06:09;;;;;;;;;4.67;4.00;;;;;23.91;44.08;100279.53;5032037;28;45498;-72
2022/10/17 02:08:47;;;;;;;;;4.00;3.00;;;;;24.06;43.85;100298.72;5024246;28;45328;-72
2022/10/17 02:11:15;;;;;;;;;4.67;4.00;;;;;24.07;43.81;100300.44;5022889;28;46716;-73
2022/10/17 02:14:02;;;;;;;;;4.00;3.00;;;;;24.03;44.19;100291.66;5021313;28;45495;-73
2022/10/17 02:16:57;;;;;;;;;3.00;3.00;;;;;24.01;44.33;100297.06;5029388;28;45586;-72
2022/10/17 02:19:22;;;;;;;;;4.00;3.67;;;;;23.97;44.68;100294.50;5026149;28;45417;-73
2022/10/17 02:22:14;;;;;;;;;5.00;4.00;;;;;23.94;44.41;100287.47;5018621;28;46129;-73
2022/10/17 02:24:58;;;;;;;;;6.00;4.00;;;;;23.80;45.40;100269.19;5017549;28;45506;-73
2022/10/17 02:27:31;;;;;;;;;5.00;5.00;;;;;23.82;45.76;100275.38;5029180;28;45556;-73
2022/10/17 02:30:14;;;;;;;;;3.00;3.00;;;;;23.73;45.49;100248.06;5033790;28;45604;-73
2022/10/17 02:32:54;;;;;;;;;5.00;4.00;;;;;23.80;45.66;100258.53;5021452;28;47044;-72
2022/10/17 02:35:23;;;;;;;;;5.00;4.00;;;;;23.68;45.58;100237.53;5024951;28;45391;-73
2022/10/17 02:37:50;;;;;;;;;5.00;3.00;;;;;23.65;45.47;100234.06;5019420;28;45460;-72
2022/10/17 02:40:19;;;;;;;;;3.00;3.00;;;;;23.76;45.46;100264.84;5039032;28;45351;-73
2022/10/17 02:42:45;;;;;;;;;2.00;2.00;;;;;23.66;45.42;100242.03;5037222;28;45529;-73
2022/10/17 02:45:13;;;;;;;;;8.00;4.00;;;;;23.73;45.41;100251.59;5037119;28;45577;-73
2022/10/17 02:48:12;;;;;;;;;4.67;4.00;;;;;23.70;45.77;100258.81;5038089;28;45957;-72
2022/10/17 02:50:41;;;;;;;;;5.00;5.00;;;;;23.68;45.99;100266.00;5019023;28;45516;-73
2022/10/17 02:53:16;;;;;;;;;3.00;3.00;;;;;23.50;46.85;100243.41;5056606;28;46368;-73
2022/10/17 02:55:55;;;;;;;;;4.33;4.00;;;;;23.49;47.94;100255.81;5025809;28;45328;-73
2022/10/17 02:58:26;;;;;;;;;4.00;4.00;;;;;23.48;48.79;100272.75;5018310;28;45415;-73
2022/10/17 03:00:52;;;;;;;;;3.00;3.00;;;;;23.42;48.86;100278.25;5018769;28;45533;-73
2022/10/17 03:03:29;;;;;;;;;5.00;5.00;;;;;23.37;49.60;100280.16;5028157;28;45450;-73
2022/10/17 03:05:55;;;;;;;;;6.00;4.00;;;;;23.27;49.29;100284.84;5022274;28;45236;-73
2022/10/17 03:08:22;;;;;;;;;3.67;3.00;;;;;23.22;49.19;100285.00;5050613;28;45470;-73
2022/10/17 03:10:47;;;;;;;;;4.33;4.00;;;;;23.14;50.22;100283.44;5025641;28;45488;-73
2022/10/17 03:13:13;;;;;;;;;3.00;2.00;;;;;22.52;49.96;100190.88;5037223;28;46096;-73
2022/10/17 03:15:39;;;;;;;;;5.50;4.00;;;;;23.13;50.86;100317.19;5037536;28;45304;-73
2022/10/17 03:18:04;;;;;;;;;4.00;4.00;;;;;23.00;50.49;100313.94;5032476;28;46462;-73
2022/10/17 03:20:30;;;;;;;;;6.00;4.67;;;;;22.93;51.42;100325.66;5035916;28;47107;-73
2022/10/17 03:22:56;;;;;;;;;3.33;3.33;;;;;22.79;51.96;100320.66;5035397;28;46382;-73
2022/10/17 03:25:21;;;;;;;;;3.67;3.67;;;;;22.76;51.36;100347.38;5034525;28;45425;-73
2022/10/17 03:27:47;;;;;;;;;4.00;3.00;;;;;22.69;51.16;100328.91;5034709;28;45428;-73
2022/10/17 03:30:13;;;;;;;;;4.00;3.67;;;;;22.73;51.00;100350.09;5034394;28;45485;-73
2022/10/17 03:32:38;;;;;;;;;3.00;2.33;;;;;22.77;50.12;100362.44;5035329;28;45568;-73
2022/10/17 03:35:04;;;;;;;;;4.33;3.67;;;;;22.68;50.75;100357.34;5031911;28;45514;-73
2022/10/17 03:37:29;;;;;;;;;2.67;2.67;;;;;22.63;51.40;100364.53;5036241;28;45410;-73
2022/10/17 03:39:55;;;;;;;;;5.00;4.00;;;;;22.70;51.07;100390.13;5034819;28;45200;-72
2022/10/17 03:42:21;;;;;;;;;3.33;3.33;;;;;22.63;51.02;100373.41;5034409;28;46494;-72
2022/10/17 03:44:46;;;;;;;;;3.67;3.00;;;;;22.70;51.11;100386.56;5036054;28;45522;-72
2022/10/17 03:47:12;;;;;;;;;4.00;3.33;;;;;22.61;50.75;100382.34;5036546;28;45641;-75
2022/10/17 03:49:37;;;;;;;;;5.00;4.00;;;;;22.61;51.72;100398.31;5035639;28;45201;-73
2022/10/17 03:52:03;;;;;;;;;4.67;4.00;;;;;22.49;51.71;100382.63;5036209;28;46336;-73
2022/10/17 03:54:30;;;;;;;;;5.00;4.00;;;;;22.61;51.99;100404.50;5034465;28;45424;-72
2022/10/17 03:56:56;;;;;;;;;3.50;3.00;;;;;22.55;51.70;100411.75;5035102;28;45586;-73
2022/10/17 03:59:21;;;;;;;;;4.67;3.33;;;;;22.59;52.50;100429.41;5036946;28;45576;-73
2022/10/17 04:01:47;;;;;;;;;3.67;3.33;;;;;22.56;52.42;100426.81;5052307;28;45479;-73
2022/10/17 04:04:13;;;;;;;;;5.00;3.67;;;;;22.45;53.35;100427.06;5036936;28;45542;-73
2022/10/17 04:06:38;;;;;;;;;3.00;3.00;;;;;22.45;53.47;100432.38;5037122;28;45551;-73
2022/10/17 04:09:05;;;;;;;;;7.00;6.00;;;;;22.41;54.52;100431.56;5036124;28;45463;-73
2022/10/17 04:11:31;;;;;;;;;6.00;4.00;;;;;22.21;53.82;100410.63;5036582;28;46335;-73
2022/10/17 04:13:58;;;;;;;;;4.00;3.00;;;;;22.43;53.90;100458.16;5036506;28;45181;-72
2022/10/17 04:16:24;;;;;;;;;4.33;3.33;;;;;22.34;53.68;100445.00;5035152;28;45515;-75
2022/10/17 04:18:55;;;;;;;;;4.00;3.67;;;;;22.33;54.72;100465.44;5035870;28;45452;-73
2022/10/17 04:21:21;;;;;;;;;2.33;2.33;;;;;22.32;55.36;100469.03;5034318;28;46873;-73
2022/10/17 04:23:47;;;;;;;;;4.00;4.00;;;;;22.20;54.34;100459.47;5033892;28;45521;-72
2022/10/17 04:26:12;;;;;;;;;5.67;5.00;;;;;22.22;54.48;100470.03;5034159;28;45442;-73
2022/10/17 04:28:38;;;;;;;;;3.00;2.67;;;;;22.26;53.99;100485.06;5049807;28;45497;-73
2022/10/17 04:31:06;;;;;;;;;3.67;3.67;;;;;22.21;52.69;100458.53;5032908;28;46584;-73
2022/10/17 04:33:33;;;;;;;;;5.00;4.67;;;;;22.17;52.20;100450.66;5033575;28;45572;-73
2022/10/17 04:36:00;;;;;;;;;3.00;2.00;;;;;22.30;51.97;100469.94;5036245;28;45462;-73
2022/10/17 04:38:28;;;;;;;;;2.33;2.00;;;;;22.38;51.28;100476.88;5035648;28;45439;-72
2022/10/17 04:40:53;;;;;;;;;2.67;2.00;;;;;22.55;50.52;100497.81;5034566;28;46413;-72
2022/10/17 04:43:19;;;;;;;;;5.00;4.33;;;;;22.47;50.85;100490.91;5034955;28;45494;-72
2022/10/17 04:45:45;;;;;;;;;7.00;4.00;;;;;22.61;50.81;100524.31;5033646;28;45492;-73
2022/10/17 04:48:10;;;;;;;;;4.00;3.00;;;;;22.59;51.79;100503.97;5032534;28;45641;-72
2022/10/17 04:50:36;;;;;;;;;8.00;5.00;;;;;22.53;52.13;100480.13;5030886;28;45544;-73
2022/10/17 04:53:01;;;;;;;;;5.00;4.00;;;;;22.62;52.41;100498.56;5032518;28;45499;-72
2022/10/17 04:55:27;;;;;;;;;6.67;5.33;;;;;22.67;53.87;100491.38;5034966;28;45485;-73
2022/10/17 04:57:53;;;;;;;;;3.00;3.00;;;;;22.61;53.94;100489.72;5049375;28;45723;-72
2022/10/17 05:00:19;;;;;;;;;6.00;4.00;;;;;22.59;54.14;100475.56;5031989;28;46321;-73
2022/10/17 05:02:44;;;;;;;;;3.33;2.67;;;;;22.58;54.31;100472.91;5034943;28;46189;-73
2022/10/17 05:05:10;;;;;;;;;4.33;4.00;;;;;22.41;55.67;100450.19;5026167;28;45461;-73
2022/10/17 05:07:39;;;;;;;;;6.67;3.00;;;;;22.40;54.80;100443.13;5029888;28;45254;-74
2022/10/17 05:10:05;;;;;;;;;4.00;4.00;;;;;22.18;55.66;100412.47;5024723;28;48210;-73
2022/10/17 05:12:31;;;;;;;;;7.00;4.00;;;;;22.13;55.45;100425.00;5016582;28;45602;-73
2022/10/17 05:14:56;;;;;;;;;5.00;5.00;;;;;22.32;55.75;100442.41;5016168;28;45433;-73
2022/10/17 05:17:22;;;;;;;;;4.00;3.00;;;;;22.29;55.92;100410.53;5016216;28;45423;-72
2022/10/17 05:19:47;;;;;;;;;4.00;4.00;;;;;22.26;55.85;100415.91;5015897;28;45522;-73
2022/10/17 05:22:13;;;;;;;;;4.67;4.67;;;;;22.21;56.03;100409.78;5016435;28;45467;-73
2022/10/17 05:24:38;;;;;;;;;5.00;5.00;;;;;22.15;55.58;100394.81;5031449;28;45404;-73
2022/10/17 05:27:04;;;;;;;;;6.00;6.00;;;;;22.24;55.46;100404.41;5020423;28;45410;-73
2022/10/17 05:29:29;;;;;;;;;4.00;4.00;;;;;22.33;55.07;100420.19;5027122;28;45747;-73
2022/10/17 05:31:55;;;;;;;;;5.00;4.00;;;;;22.29;55.60;100418.50;5031209;28;45404;-75
2022/10/17 05:34:20;;;;;;;;;8.00;7.00;;;;;22.30;56.06;100438.88;5025591;28;45478;-76
2022/10/17 05:36:46;;;;;;;;;5.67;4.33;;;;;22.22;57.16;100425.72;5020869;28;45401;-73
2022/10/17 05:39:13;;;;;;;;;5.00;5.00;;;;;22.24;57.95;100444.31;5030837;28;45761;-73
2022/10/17 05:41:39;;;;;;;;;5.00;4.00;;;;;22.09;57.56;100415.34;5022229;28;45463;-73
2022/10/17 05:44:05;;;;;;;;;4.67;4.67;;;;;22.09;58.25;100426.84;5025564;28;45465;-73
2022/10/17 05:46:30;;;;;;;;;5.00;5.00;;;;;21.97;57.94;100412.00;5045901;28;45452;-73
2022/10/17 05:48:56;;;;;;;;;4.67;4.67;;;;;22.04;57.62;100418.06;5034561;28;46588;-73
2022/10/17 05:51:21;;;;;;;;;6.00;5.00;;;;;22.01;56.91;100411.03;5033346;28;45532;-72
2022/10/17 05:53:47;;;;;;;;;6.00;4.00;;;;;22.17;56.64;100408.09;5021111;28;45560;-73
2022/10/17 05:56:13;;;;;;;;;4.00;3.00;;;;;22.13;57.43;100387.78;5033791;28;45509;-73
2022/10/17 05:58:44;;;;;;;;;4.33;4.00;;;;;22.31;55.97;100406.03;5019454;28;45471;-73
2022/10/17 06:01:11;;;;;;;;;2.00;2.00;;;;;22.19;58.00;100406.28;5031520;28;45410;-72
2022/10/17 06:03:37;;;;;;;;;3.00;3.00;;;;;22.00;58.78;100413.72;5022211;28;45526;-73
2022/10/17 06:06:04;;;;;;;;;6.67;4.67;;;;;21.77;59.39;100390.25;5030843;28;45491;-73
2022/10/17 06:08:30;;;;;;;;;5.67;4.33;;;;;21.61;59.17;100385.19;5019097;28;46410;-73
2022/10/17 06:10:55;;;;;;;;;3.33;3.33;;;;;21.80;58.71;100416.75;5045060;28;45497;-72
2022/10/17 06:13:21;;;;;;;;;3.33;3.33;;;;;21.72;59.44;100405.38;5020827;28;45458;-73
2022/10/17 06:15:47;;;;;;;;;3.00;3.00;;;;;21.65;59.24;100401.97;5033009;28;45624;-74
2022/10/17 06:18:12;;;;;;;;;3.00;3.00;;;;;21.73;59.24;100416.00;5018973;28;46268;-73
2022/10/17 06:20:38;;;;;;;;;1.33;1.33;;;;;21.67;59.53;100420.56;5018877;28;45738;-74
2022/10/17 06:23:04;;;;;;;;;3.00;2.67;;;;;21.73;58.46;100439.06;5031605;28;45450;-74
2022/10/17 06:25:30;;;;;;;;;3.00;3.00;;;;;21.84;58.33;100434.41;5019276;28;45629;-73
2022/10/17 06:27:56;;;;;;;;;3.33;2.00;;;;;21.89;58.43;100437.88;5018804;28;45620;-73
2022/10/17 06:30:22;;;;;;;;;3.00;2.33;;;;;21.83;58.67;100419.38;5030880;28;45398;-77
2022/10/17 06:32:48;;;;;;;;;4.00;3.00;;;;;21.84;58.12;100399.84;5034419;28;45474;-73
2022/10/17 06:35:13;;;;;;;;;4.00;3.00;;;;;21.77;57.33;100364.53;5036033;28;45474;-73
2022/10/17 06:37:39;;;;;;;;;4.00;3.00;;;;;21.91;58.42;100390.84;5051899;28;47474;-73
2022/10/17 06:40:07;;;;;;;;;4.00;3.00;;;;;21.88;58.29;100390.91;5037380;28;45371;-73
2022/10/17 06:42:33;;;;;;;;;3.00;3.00;;;;;21.74;58.91;100393.81;5032661;28;47080;-73
2022/10/17 06:44:59;;;;;;;;;5.67;3.00;;;;;21.89;58.97;100411.28;5036257;28;45411;-73
2022/10/17 06:47:24;;;;;;;;;2.00;2.00;;;;;21.65;59.84;100420.59;5034185;28;45656;-73
2022/10/17 06:49:50;;;;;;;;;4.00;3.00;;;;;21.61;60.30;100427.72;5051242;28;45488;-73
2022/10/17 06:52:16;;;;;;;;;4.33;3.00;;;;;21.56;60.18;100437.53;5036882;28;45751;-73
2022/10/17 06:54:43;;;;;;;;;3.00;3.00;;;;;21.63;60.24;100470.25;5035781;28;46350;-73
2022/10/17 06:57:09;;;;;;;;;3.67;3.00;;;;;21.58;60.21;100472.09;5035686;28;46674;-73
2022/10/17 06:59:35;;;;;;;;;4.33;3.00;;;;;21.55;60.04;100464.19;5036612;28;45484;-73
2022/10/17 07:02:01;;;;;;;;;5.00;4.33;;;;;21.63;60.48;100487.06;5031723;28;45561;-72
2022/10/17 07:04:27;;;;;;;;;2.67;2.67;;;;;21.54;60.12;100476.56;5034295;28;46133;-73
2022/10/17 07:06:53;;;;;;;;;4.00;4.00;;;;;21.69;59.62;100509.16;5027671;28;46241;-73
2022/10/17 07:09:19;;;;;;;;;4.67;4.00;;;;;21.64;60.01;100506.53;5020622;28;45424;-80
2022/10/17 07:11:44;;;;;;;;;4.00;3.00;;;;;21.58;59.87;100494.22;5019379;28;45474;-80
2022/10/17 07:14:10;;;;;;;;;4.33;3.00;;;;;21.59;59.43;100496.00;5036346;28;45539;-73
2022/10/17 07:16:36;;;;;;;;;4.00;3.00;;;;;21.78;59.09;100519.59;5026560;28;46185;-73
2022/10/17 07:19:01;;;;;;;;;3.00;3.00;;;;;21.84;58.58;100530.13;5029670;28;45425;-72
2022/10/17 07:21:27;;;;;;;;;3.00;3.00;;;;;21.88;58.55;100534.50;5031350;28;45305;-72
2022/10/17 07:23:53;;;;;;;;;4.00;4.00;;;;;21.92;58.46;100519.38;5035461;28;45764;-73
2022/10/17 07:26:19;;;;;;;;;6.00;4.33;;;;;21.88;58.60;100518.53;5035861;28;45371;-73
2022/10/17 07:28:46;;;;;;;;;4.00;4.00;;;;;21.95;58.65;100522.88;5037151;28;45458;-72
2022/10/17 07:31:15;;;;;;;;;5.33;4.00;;;;;22.01;58.27;100525.41;5034994;28;45805;-72
2022/10/17 07:33:42;;;;;;;;;7.00;4.00;;;;;21.84;57.98;100500.88;5035434;28;45550;-72
2022/10/17 07:36:08;;;;;;;;;4.00;4.00;;;;;22.02;57.76;100524.53;5033373;28;46594;-72
2022/10/17 07:38:35;;;;;;;;;3.67;3.00;;;;;22.10;57.54;100537.66;5015755;28;45377;-71
2022/10/17 07:41:03;;;;;;;;;3.00;3.00;;;;;22.20;57.02;100530.41;5018948;28;45334;-71
2022/10/17 07:43:30;;;;;;;;;5.00;4.33;;;;;22.21;57.25;100527.72;5031859;28;45525;-72
2022/10/17 07:45:56;;;;;;;;;3.33;3.33;;;;;22.25;57.17;100525.91;5015758;28;46330;-72
2022/10/17 07:48:23;;;;;;;;;4.00;4.00;;;;;22.26;56.83;100534.78;5024146;28;45542;-75
2022/10/17 07:50:49;;;;;;;;;3.67;3.33;;;;;22.21;56.91;100534.81;5034381;28;45549;-73
2022/10/17 07:53:16;;;;;;;;;4.00;4.00;;;;;22.33;56.38;100545.28;5024598;28;45621;-71
2022/10/17 07:55:42;;;;;;;;;5.33;4.67;;;;;22.30;55.99;100539.13;5030223;28;46368;-71
2022/10/17 07:58:08;;;;;;;;;7.33;5.00;;;;;22.41;55.87;100554.00;5028999;28;45629;-71
2022/10/17 08:00:35;;;;;;;;;3.67;3.67;;;;;22.41;55.59;100561.97;5030761;28;45657;-72
2022/10/17 08:03:00;;;;;;;;;3.33;3.33;;;;;22.43;56.43;100548.66;5023888;28;45480;-71
2022/10/17 08:05:26;;;;;;;;;3.00;2.33;;;;;22.39;55.95;100533.66;5033249;28;45961;-71
2022/10/17 08:07:52;;;;;;;;;6.00;4.00;;;;;22.49;56.20;100547.66;5036036;28;45498;-71
2022/10/17 08:10:18;;;;;;;;;4.00;3.00;;;;;22.53;55.70;100547.56;5026077;28;45454;-72
2022/10/17 08:12:43;;;;;;;;;5.00;3.00;;;;;22.59;55.12;100549.22;5033894;28;45429;-71
2022/10/17 08:15:10;;;;;;;;;6.67;4.00;;;;;22.51;55.76;100530.75;5035340;28;45496;-70
2022/10/17 08:17:37;;;;;;;;;3.67;3.00;;;;;22.59;55.04;100523.47;5034617;28;45347;-71
2022/10/17 08:20:04;;;;;;;;;2.33;2.33;;;;;22.64;54.93;100526.03;5022309;28;45711;-72
2022/10/17 08:22:31;;;;;;;;;3.33;3.00;;;;;22.63;55.22;100533.16;5030747;28;45778;-71
2022/10/17 08:24:56;;;;;;;;;3.67;3.67;;;;;22.56;55.07;100520.00;5030800;28;46039;-72
2022/10/17 08:27:26;;;;;;;;;4.00;3.33;;;;;22.60;54.99;100503.94;5027758;28;45365;-72
2022/10/17 08:29:53;;;;;;;;;3.33;3.00;;;;;22.69;54.55;100520.63;5026864;28;45419;-71
2022/10/17 08:32:24;;;;;;;;;3.00;3.00;;;;;22.66;54.60;100516.25;5033610;28;45602;-71
2022/10/17 08:34:50;;;;;;;;;3.00;3.00;;;;;22.77;53.88;100521.34;5034057;28;46396;-70
2022/10/17 08:37:16;;;;;;;;;3.00;2.00;;;;;22.86;54.25;100520.28;5032622;28;45428;-70
2022/10/17 08:39:42;;;;;;;;;2.33;2.33;;;;;22.88;53.57;100513.13;5033503;28;45496;-71
2022/10/17 08:42:36;;;;;;;;;4.00;4.00;;;;;22.91;53.34;100513.06;5034345;28;45555;-71
2022/10/17 08:45:28;;;;;;;;;2.67;2.67;;;;;22.97;53.42;100512.94;5026170;28;45448;-71
2022/10/17 08:48:10;;;;;;;;;4.00;3.00;;;;;23.12;53.14;100527.72;5045691;28;45560;-73
2022/10/17 08:51:11;;;;;;;;;3.00;3.00;;;;;23.11;53.20;100510.00;5034881;28;45546;-71
2022/10/17 08:53:48;;;;;;;;;4.33;3.00;;;;;23.38;52.77;100525.38;5024663;28;45418;-71
2022/10/17 08:56:22;;;;;;;;;2.00;2.00;;;;;23.55;51.98;100529.41;5032856;28;45378;-70
2022/10/17 08:58:48;;;;;;;;;3.00;2.00;;;;;23.59;51.70;100517.75;5033715;28;45664;-72
2022/10/17 09:01:23;;;;;;;;;4.00;3.00;;;;;23.75;51.49;100535.13;5035605;28;45585;-71
2022/10/17 09:04:21;;;;;;;;;0.00;0.00;;;;;23.77;51.00;100527.09;5027379;28;45407;-73
2022/10/17 09:07:00;;;;;;;;;1.00;1.00;;;;;23.92;51.14;100539.22;5030728;28;45739;-72
2022/10/17 09:09:39;;;;;;;;;2.00;1.00;;;;;24.03;50.84;100545.16;5032629;28;45597;-70
2022/10/17 09:12:15;;;;;;;;;2.00;1.00;;;;;24.13;50.49;100540.44;5033374;28;45537;-72
2022/10/17 09:15:13;;;;;;;;;3.00;3.00;;;;;24.25;50.50;100524.09;5032460;28;45477;-70
2022/10/17 09:17:38;;;;;;;;;3.00;3.00;;;;;24.34;49.65;100542.56;5034057;28;46637;-70
2022/10/17 09:20:27;;;;;;;;;3.67;3.00;;;;;24.26;49.99;100544.56;5018315;28;45427;-70
2022/10/17 09:23:29;;;;;;;;;2.00;1.00;;;;;24.35;49.76;100544.31;5035062;28;45347;-71
2022/10/17 09:25:57;;;;;;;;;2.33;2.00;;;;;24.29;49.07;100527.56;5027766;28;45450;-72
2022/10/17 09:28:33;;;;;;;;;1.33;1.33;;;;;24.31;49.20;100528.41;5026136;28;45516;-71
2022/10/17 09:31:19;;;;;;;;;3.00;3.00;;;;;24.23;48.96;100517.94;5021466;28;45330;-71
2022/10/17 09:33:46;;;;;;;;;3.00;2.00;;;;;24.35;49.58;100533.66;5030266;28;45339;-70
2022/10/17 09:36:34;;;;;;;;;3.33;2.00;;;;;24.39;49.35;100534.41;5020296;28;45710;-70
2022/10/17 09:39:10;;;;;;;;;1.67;1.67;;;;;24.71;48.82;100554.03;5019887;28;45454;-70
2022/10/17 09:41:42;;;;;;;;;3.00;2.00;;;;;25.23;47.97;100560.56;5019070;28;45223;-70
2022/10/17 09:44:21;;;;;;;;;3.00;3.00;;;;;26.02;46.46;100561.63;5026156;28;45389;-70
2022/10/17 09:47:19;;;;;;;;;2.67;2.00;;;;;26.98;43.91;100540.38;5054612;28;45578;-71
2022/10/17 09:49:46;;;;;;;;;3.00;2.00;;;;;27.53;42.18;100554.31;5019233;28;45696;-71
2022/10/17 09:52:46;;;;;;;;;2.00;2.00;;;;;28.08;41.21;100539.56;5028640;28;45511;-71
2022/10/17 09:55:14;;;;;;;;;2.00;1.67;;;;;29.01;39.99;100574.88;5036047;28;45445;-71
2022/10/17 09:58:04;;;;;;;;;2.33;2.00;;;;;29.59;38.07;100551.53;5025238;28;45466;-71
2022/10/17 10:00:38;;;;;;;;;2.00;1.67;;;;;29.91;37.57;100564.28;5025424;28;45807;-70
2022/10/17 10:03:26;;;;;;;;;3.67;3.00;;;;;30.17;37.57;100570.19;5019118;28;45712;-71
2022/10/17 10:06:04;;;;;;;;;1.00;1.00;;;;;30.48;37.10;100595.56;5028599;28;45441;-70
2022/10/17 10:08:53;;;;;;;;;4.00;3.00;;;;;30.70;35.99;100571.91;5024126;28;45446;-71
2022/10/17 10:11:25;;;;;;;;;2.00;2.00;;;;;31.03;35.31;100573.75;5018912;28;46037;-71
2022/10/17 10:13:51;;;;;;;;;2.33;2.00;;;;;31.10;35.60;100555.41;5027851;28;45713;-71
2022/10/17 10:16:21;;;;;;;;;1.33;1.33;;;;;31.24;35.87;100550.09;5032645;28;45545;-71
2022/10/17 10:18:48;;;;;;;;;3.00;2.67;;;;;31.40;35.31;100571.69;5028223;28;45430;-71
2022/10/17 10:21:15;;;;;;;;;3.00;2.00;;;;;31.45;35.36;100564.22;5045369;28;47472;-71
2022/10/17 10:23:43;;;;;;;;;1.67;1.00;;;;;31.54;35.37;100573.66;5019199;28;45411;-71
2022/10/17 10:26:34;;;;;;;;;2.33;1.67;;;;;31.12;34.55;100516.59;5018906;28;45534;-71
2022/10/17 10:29:18;;;;;;;;;2.00;1.67;;;;;31.39;35.14;100559.16;5026954;28;45604;-71
2022/10/17 10:31:45;;;;;;;;;2.67;2.00;;;;;31.67;35.76;100569.25;5029329;28;45425;-71
2022/10/17 10:34:27;;;;;;;;;4.00;2.00;;;;;31.66;34.81;100563.97;5020299;28;45455;-71
2022/10/17 10:37:04;;;;;;;;;2.00;2.00;;;;;31.70;34.68;100573.63;5025168;28;45387;-71
2022/10/17 10:39:35;;;;;;;;;3.00;2.33;;;;;31.59;34.67;100593.13;5024919;28;45506;-71
2022/10/17 10:42:04;;;;;;;;;2.00;2.00;;;;;31.45;34.49;100591.22;5050712;28;45677;-71
2022/10/17 10:44:32;;;;;;;;;2.00;2.00;;;;;31.50;33.96;100599.94;5019090;28;45375;-71
2022/10/17 10:47:22;;;;;;;;;3.67;3.67;;;;;31.27;34.27;100576.03;5018569;28;45465;-71
2022/10/17 10:49:51;;;;;;;;;3.00;2.00;;;;;30.94;34.97;100582.38;5030537;28;45406;-73
2022/10/17 10:52:35;;;;;;;;;3.00;2.00;;;;;30.42;35.69;100594.06;5018798;28;45546;-74
2022/10/17 10:55:25;;;;;;;;;2.67;1.67;;;;;30.32;36.07;100620.63;5034331;28;45550;-71
2022/10/17 10:57:55;;;;;;;;;2.00;2.00;;;;;29.69;36.54;100555.53;5018393;28;45544;-72
2022/10/17 11:00:25;;;;;;;;;1.00;1.00;;;;;29.52;36.96;100624.47;5018494;28;45477;-72
2022/10/17 11:03:00;;;;;;;;;2.00;1.00;;;;;29.40;37.43;100618.81;5017860;28;46498;-71
2022/10/17 11:05:47;;;;;;;;;2.33;2.33;;;;;29.36;37.62;100596.56;5019000;28;45410;-71
2022/10/17 11:08:28;;;;;;;;;2.67;2.00;;;;;29.53;37.64;100593.09;5050981;28;45451;-71
2022/10/17 11:10:59;;;;;;;;;6.00;2.00;;;;;29.71;37.55;100592.22;5050916;28;45391;-71
2022/10/17 11:13:32;;;;;;;;;1.67;1.00;;;;;29.77;37.00;100585.66;5017922;28;45513;-71
2022/10/17 11:16:06;;;;;;;;;2.00;1.00;;;;;29.91;37.40;100602.00;5033736;28;45375;-73
2022/10/17 11:18:44;;;;;;;;;2.33;2.33;;;;;30.02;36.35;100605.97;5033492;28;45474;-71
2022/10/17 11:21:27;;;;;;;;;2.33;2.00;;;;;29.97;37.04;100621.50;5026285;28;46621;-71
2022/10/17 11:24:01;;;;;;;;;3.00;2.33;;;;;29.88;36.47;100612.94;5038278;28;45700;-71
2022/10/17 11:26:31;;;;;;;;;2.67;2.00;;;;;29.97;36.77;100618.81;5038483;28;45240;-71
2022/10/17 11:29:00;;;;;;;;;2.00;2.00;;;;;29.82;37.30;100605.13;5037441;28;45280;-71
2022/10/17 11:31:36;;;;;;;;;3.33;1.00;;;;;29.81;36.95;100616.88;5039056;28;45303;-72
2022/10/17 11:34:26;;;;;;;;;2.33;1.00;;;;;29.92;37.17;100617.22;5036967;28;45350;-73
2022/10/17 11:37:01;;;;;;;;;4.67;2.67;;;;;29.87;37.98;100618.38;5053806;28;45452;-72
2022/10/17 11:39:43;;;;;;;;;2.00;2.00;;;;;29.79;37.83;100608.00;5038736;28;45477;-71
2022/10/17 11:42:17;;;;;;;;;3.67;3.00;;;;;29.74;37.81;100610.03;5038350;28;45206;-73